createdAt,value
2019-03-27T00:03:52.004Z,62.50
2019-03-27T00:07:55.086Z,62.40
2019-03-27T00:11:58.136Z,62.80
2019-03-27T00:16:01.193Z,62.50
2019-03-27T00:20:06.907Z,63.00
2019-03-27T00:24:09.953Z,62.90
2019-03-27T00:28:14.012Z,62.90
2019-03-27T00:32:17.099Z,62.90
2019-03-27T00:36:20.108Z,63.10
2019-03-27T00:40:23.229Z,63.40
2019-03-27T00:44:26.303Z,63.40
2019-03-27T00:48:30.875Z,63.30
2019-03-27T00:52:33.884Z,63.60
2019-03-27T00:56:36.893Z,64.20
2019-03-27T01:00:46.488Z,65.10
2019-03-27T01:04:49.502Z,65.70
2019-03-27T01:08:52.579Z,65.60
2019-03-27T01:12:55.584Z,65.90
2019-03-27T01:16:58.596Z,66.20
2019-03-27T01:21:01.599Z,66.30
2019-03-27T01:25:05.431Z,66.20
2019-03-27T01:29:08.455Z,65.90
2019-03-27T01:33:11.486Z,65.40
2019-03-27T01:37:14.492Z,65.50
2019-03-27T01:41:17.537Z,66.00
2019-03-27T01:45:20.598Z,65.90
2019-03-27T01:49:24.866Z,66.90
2019-03-27T01:53:27.868Z,67.60
2019-03-27T01:57:30.890Z,67.50
2019-03-27T02:01:33.912Z,67.20
2019-03-27T02:05:37.100Z,67.60
2019-03-27T02:09:40.111Z,67.00
2019-03-27T02:13:43.107Z,66.90
2019-03-27T02:17:46.128Z,66.60
2019-03-27T02:21:49.124Z,66.90
2019-03-27T02:25:52.137Z,66.60
2019-03-27T02:29:55.152Z,67.20
2019-03-27T02:33:58.152Z,68.20
2019-03-27T02:38:01.193Z,67.40
2019-03-27T02:42:04.203Z,67.30
2019-03-27T02:46:23.325Z,67.80
2019-03-27T02:50:13.101Z,67.60
2019-03-27T02:54:16.156Z,67.90
2019-03-27T02:58:19.186Z,68.20
2019-03-27T03:02:22.274Z,68.80
2019-03-27T03:06:25.377Z,68.50
2019-03-27T03:10:28.385Z,68.30
2019-03-27T03:14:31.402Z,68.40
2019-03-27T03:18:34.457Z,67.90
2019-03-27T03:22:37.457Z,68.30
2019-03-27T03:26:40.466Z,67.70
2019-03-27T03:30:43.478Z,68.40
2019-03-27T03:34:46.493Z,68.90
2019-03-27T03:38:49.645Z,68.70
2019-03-27T03:42:52.661Z,68.70
2019-03-27T03:47:00.201Z,68.10
2019-03-27T03:51:02.437Z,67.90
2019-03-27T03:55:06.055Z,67.40
2019-03-27T03:59:11.605Z,67.00
2019-03-27T04:03:14.911Z,66.80
2019-03-27T04:07:17.947Z,68.10
2019-03-27T04:11:21.011Z,68.20
2019-03-27T04:15:24.025Z,69.00
2019-03-27T04:19:27.015Z,69.10
2019-03-27T04:23:32.054Z,68.90
2019-03-27T04:27:35.062Z,68.70
2019-03-27T04:31:38.060Z,68.70
2019-03-27T04:35:41.087Z,68.50
2019-03-27T04:39:44.111Z,68.20
2019-03-27T04:43:48.163Z,68.20
2019-03-27T04:47:51.251Z,68.40
2019-03-27T04:51:55.296Z,68.20
2019-03-27T04:55:58.327Z,68.00
2019-03-27T05:00:04.206Z,68.10
2019-03-27T05:04:07.842Z,68.20
2019-03-27T05:08:10.843Z,68.30
2019-03-27T05:12:13.862Z,68.10
2019-03-27T05:16:17.163Z,68.10
2019-03-27T05:20:20.161Z,68.80
2019-03-27T05:24:24.428Z,68.20
2019-03-27T05:28:27.431Z,68.00
2019-03-27T05:32:30.459Z,68.30
2019-03-27T05:36:33.492Z,68.40
2019-03-27T05:40:36.500Z,68.40
2019-03-27T05:44:41.593Z,69.00
2019-03-27T05:48:44.679Z,68.40
2019-03-27T05:52:49.076Z,68.30
2019-03-27T05:56:52.107Z,69.70
2019-03-27T06:00:55.412Z,68.40
2019-03-27T06:04:58.515Z,68.10
2019-03-27T06:09:04.879Z,67.70
2019-03-27T06:13:07.975Z,67.90
2019-03-27T06:17:10.989Z,66.90
2019-03-27T06:21:14.000Z,67.00
2019-03-27T06:25:16.994Z,66.90
2019-03-27T06:29:19.999Z,65.60
2019-03-27T06:33:22.983Z,64.60
2019-03-27T06:37:26.080Z,64.10
2019-03-27T06:41:29.107Z,63.00
2019-03-27T06:45:32.135Z,62.40
2019-03-27T06:49:35.130Z,61.20
2019-03-27T06:53:39.630Z,60.00
2019-03-27T06:57:42.646Z,58.70
2019-03-27T07:01:45.650Z,58.10
2019-03-27T07:05:48.648Z,57.40
2019-03-27T07:09:51.655Z,56.70
2019-03-27T07:13:54.660Z,55.30
2019-03-27T07:17:57.644Z,54.30
2019-03-27T07:22:00.758Z,54.80
2019-03-27T07:26:03.759Z,52.60
2019-03-27T07:30:07.472Z,50.70
2019-03-27T07:34:10.469Z,50.20
2019-03-27T07:38:13.472Z,48.20
2019-03-27T07:42:16.531Z,47.10
2019-03-27T07:46:19.528Z,47.30
2019-03-27T07:50:22.532Z,46.70
2019-03-27T07:54:27.643Z,46.10
2019-03-27T07:58:30.647Z,44.40
2019-03-27T08:02:33.641Z,43.00
2019-03-27T08:06:36.647Z,43.20
2019-03-27T08:10:39.664Z,43.10
2019-03-27T08:14:42.659Z,41.30
2019-03-27T08:18:45.690Z,39.70
2019-03-27T08:22:48.695Z,39.90
2019-03-27T08:26:51.703Z,37.10
2019-03-27T08:30:54.699Z,33.60
2019-03-27T08:34:57.719Z,35.00
2019-03-27T08:39:00.715Z,32.50
2019-03-27T08:43:03.783Z,33.90
2019-03-27T08:47:06.784Z,32.10
2019-03-27T08:51:09.799Z,32.70
2019-03-27T08:55:14.900Z,31.50
2019-03-27T08:59:17.891Z,31.30
2019-03-27T09:03:20.921Z,31.00
2019-03-27T09:07:23.919Z,32.80
2019-03-27T09:11:26.914Z,32.30
2019-03-27T09:15:29.914Z,33.50
2019-03-27T09:19:36.105Z,33.60
2019-03-27T09:23:37.819Z,34.00
2019-03-27T09:27:40.821Z,37.90
2019-03-27T09:31:45.300Z,39.40
2019-03-27T09:35:48.643Z,41.30
2019-03-27T09:39:51.719Z,40.80
2019-03-27T09:43:54.734Z,41.50
2019-03-27T09:47:57.833Z,41.20
2019-03-27T09:52:00.828Z,41.90
2019-03-27T09:56:18.084Z,39.20
2019-03-27T10:00:10.190Z,36.30
2019-03-27T10:04:13.219Z,37.10
2019-03-27T10:08:16.203Z,37.10
2019-03-27T10:12:19.213Z,38.80
2019-03-27T10:16:22.223Z,40.70
2019-03-27T10:20:25.224Z,41.00
2019-03-27T10:24:28.235Z,42.10
2019-03-27T10:28:31.250Z,40.30
2019-03-27T10:32:34.238Z,40.00
2019-03-27T10:36:37.235Z,39.70
2019-03-27T10:40:40.244Z,39.40
2019-03-27T10:44:43.267Z,39.10
2019-03-27T10:48:52.470Z,38.70
2019-03-27T10:52:51.228Z,36.90
2019-03-27T10:56:54.803Z,35.60
2019-03-27T11:00:57.874Z,34.10
2019-03-27T11:05:00.888Z,36.10
2019-03-27T11:09:07.395Z,34.20
2019-03-27T11:13:10.414Z,34.90
2019-03-27T11:17:13.419Z,36.70
2019-03-27T11:21:16.424Z,37.80
2019-03-27T11:25:19.442Z,37.20
2019-03-27T11:29:22.444Z,38.10
2019-03-27T11:33:28.802Z,38.70
2019-03-27T11:37:30.396Z,39.10
2019-03-27T11:41:33.406Z,38.30
2019-03-27T11:45:36.399Z,39.70
2019-03-27T11:49:39.415Z,40.70
2019-03-27T11:53:42.462Z,40.80
2019-03-27T11:57:45.918Z,39.40
2019-03-27T12:01:48.938Z,38.40
2019-03-27T12:05:51.931Z,37.20
2019-03-27T12:09:54.979Z,36.50
2019-03-27T12:13:57.989Z,37.40
2019-03-27T12:18:00.996Z,33.50
2019-03-27T12:22:04.007Z,35.30
2019-03-27T12:26:07.085Z,35.20
2019-03-27T12:30:10.311Z,34.60
2019-03-27T12:34:13.315Z,34.60
2019-03-27T12:38:16.447Z,35.90
2019-03-27T12:42:19.435Z,34.40
2019-03-27T12:46:22.435Z,34.30
2019-03-27T12:50:25.508Z,34.40
2019-03-27T12:54:28.523Z,33.50
2019-03-27T12:58:33.038Z,32.50
2019-03-27T13:02:37.187Z,32.50
2019-03-27T13:06:40.377Z,33.40
2019-03-27T13:10:43.379Z,33.60
2019-03-27T13:14:46.397Z,33.30
2019-03-27T13:18:49.406Z,33.60
2019-03-27T13:22:52.658Z,34.90
2019-03-27T13:26:55.767Z,33.70
2019-03-27T13:30:58.777Z,33.50
2019-03-27T13:35:03.199Z,34.40
2019-03-27T13:39:07.789Z,34.40
2019-03-27T13:43:10.943Z,34.80
2019-03-27T13:47:14.236Z,33.60
2019-03-27T13:51:17.423Z,34.20
2019-03-27T13:55:20.447Z,32.40
2019-03-27T13:59:25.040Z,33.30
2019-03-27T14:03:34.163Z,33.10
2019-03-27T14:07:37.175Z,33.00
2019-03-27T14:11:40.333Z,33.30
2019-03-27T14:15:43.323Z,33.30
2019-03-27T14:19:46.329Z,32.60
2019-03-27T14:23:49.356Z,33.00
2019-03-27T14:28:02.467Z,32.90
2019-03-27T14:32:05.470Z,33.20
2019-03-27T14:36:08.569Z,34.90
2019-03-27T14:40:11.860Z,33.40
2019-03-27T14:44:15.310Z,34.60
2019-03-27T14:48:18.487Z,34.10
2019-03-27T14:52:21.869Z,34.20
2019-03-27T14:56:24.900Z,34.80
2019-03-27T15:00:28.468Z,34.80
2019-03-27T15:04:31.485Z,35.70
2019-03-27T15:08:34.515Z,35.50
2019-03-27T15:12:37.995Z,34.40
2019-03-27T15:16:41.075Z,35.80
2019-03-27T15:20:44.100Z,35.70
2019-03-27T15:24:47.155Z,35.00
2019-03-27T15:28:50.854Z,34.80
2019-03-27T15:32:54.194Z,35.30
2019-03-27T15:36:57.181Z,34.50
2019-03-27T15:41:00.195Z,36.10
2019-03-27T15:45:07.583Z,36.30
2019-03-27T15:49:10.585Z,37.50
2019-03-27T15:53:13.571Z,38.30
2019-03-27T15:57:16.611Z,38.90
2019-03-27T16:01:20.667Z,39.50
2019-03-27T16:05:23.703Z,40.00
2019-03-27T16:09:26.707Z,40.30
2019-03-27T16:13:29.802Z,40.30
2019-03-27T16:17:32.909Z,41.00
2019-03-27T16:21:37.679Z,41.80
2019-03-27T16:25:40.827Z,42.00
2019-03-27T16:29:43.829Z,41.70
2019-03-27T16:33:46.848Z,42.30
2019-03-27T16:37:49.955Z,42.20
2019-03-27T16:41:53.003Z,41.90
2019-03-27T16:45:56.099Z,42.20
2019-03-27T16:49:59.265Z,41.80
2019-03-27T16:54:02.282Z,42.20
2019-03-27T16:58:05.345Z,41.60
2019-03-27T17:02:09.780Z,41.70
2019-03-27T17:06:12.823Z,41.90
2019-03-27T17:10:16.231Z,42.10
2019-03-27T17:14:19.294Z,42.10
2019-03-27T17:18:22.347Z,42.10
2019-03-27T17:22:36.667Z,42.40
2019-03-27T17:26:39.803Z,43.20
2019-03-27T17:30:43.045Z,45.20
2019-03-27T17:34:46.378Z,46.50
2019-03-27T17:38:50.699Z,47.60
2019-03-27T17:42:53.911Z,48.10
2019-03-27T17:46:56.952Z,48.80
2019-03-27T17:51:00.100Z,49.20
2019-03-27T17:55:05.859Z,49.30
2019-03-27T17:59:09.081Z,50.40
2019-03-27T18:03:13.033Z,51.50
2019-03-27T18:07:16.326Z,51.30
2019-03-27T18:11:19.445Z,51.40
2019-03-27T18:15:23.962Z,52.40
2019-03-27T18:19:27.095Z,52.50
2019-03-27T18:23:30.112Z,52.90
2019-03-27T18:27:33.135Z,53.20
2019-03-27T18:31:36.159Z,53.50
2019-03-27T18:35:39.175Z,53.40
2019-03-27T18:39:42.223Z,54.10
2019-03-27T18:43:45.251Z,54.40
2019-03-27T18:47:48.324Z,54.70
2019-03-27T18:51:51.341Z,54.50
2019-03-27T18:55:57.355Z,54.80
2019-03-27T19:00:00.401Z,55.20
2019-03-27T19:04:04.040Z,56.70
2019-03-27T19:08:07.207Z,56.60
2019-03-27T19:12:10.311Z,57.10
2019-03-27T19:16:13.362Z,57.40
2019-03-27T19:20:16.560Z,57.70
2019-03-27T19:24:19.867Z,57.40
2019-03-27T19:28:23.038Z,57.40
2019-03-27T19:32:26.269Z,57.60
2019-03-27T19:36:29.402Z,58.00
2019-03-27T19:40:32.409Z,58.30
2019-03-27T19:44:35.438Z,58.10
2019-03-27T19:48:38.580Z,58.40
2019-03-27T19:52:42.634Z,58.20
2019-03-27T19:56:46.629Z,58.20
2019-03-27T20:00:49.652Z,58.60
2019-03-27T20:04:53.746Z,58.70
2019-03-27T20:08:57.040Z,58.60
2019-03-27T20:13:00.188Z,58.40
2019-03-27T20:17:03.176Z,58.40
2019-03-27T20:21:06.187Z,58.40
2019-03-27T20:25:10.859Z,58.20
2019-03-27T20:29:13.955Z,59.00
2019-03-27T20:33:16.943Z,59.30
2019-03-27T20:37:20.020Z,58.80
2019-03-27T20:41:25.052Z,59.30
2019-03-27T20:45:28.053Z,59.10
2019-03-27T20:49:31.063Z,59.80
2019-03-27T20:53:34.075Z,59.80
2019-03-27T20:57:37.082Z,60.00
2019-03-27T21:01:46.075Z,60.20
2019-03-27T21:05:49.797Z,60.70
2019-03-27T21:09:53.396Z,60.50
2019-03-27T21:13:56.574Z,60.80
2019-03-27T21:17:59.543Z,60.60
2019-03-27T21:22:02.583Z,60.50
2019-03-27T21:26:05.590Z,60.50
2019-03-27T21:30:09.706Z,60.50
2019-03-27T21:34:12.710Z,60.30
2019-03-27T21:38:15.711Z,60.10
2019-03-27T21:42:18.707Z,60.20
2019-03-27T21:46:21.703Z,60.50
2019-03-27T21:50:24.713Z,60.70
2019-03-27T21:54:27.703Z,60.60
2019-03-27T21:58:30.700Z,60.60
2019-03-27T22:02:33.694Z,61.00
2019-03-27T22:06:38.183Z,61.20
2019-03-27T22:10:41.282Z,61.20
2019-03-27T22:14:44.291Z,61.80
2019-03-27T22:18:47.305Z,62.10
2019-03-27T22:22:51.297Z,61.50
2019-03-27T22:26:57.364Z,61.30
2019-03-27T22:31:00.703Z,60.90
2019-03-27T22:35:07.167Z,61.30
2019-03-27T22:39:11.590Z,61.60
2019-03-27T22:43:14.600Z,62.10
2019-03-27T22:47:17.603Z,62.10
2019-03-27T22:51:20.609Z,62.00
2019-03-27T22:55:23.619Z,61.90
2019-03-27T22:59:26.626Z,61.80
2019-03-27T23:03:29.627Z,61.30
2019-03-27T23:07:33.873Z,61.90
2019-03-27T23:11:36.875Z,62.10
2019-03-27T23:15:39.896Z,63.00
2019-03-27T23:19:43.365Z,63.60
2019-03-27T23:23:46.434Z,63.10
2019-03-27T23:27:49.456Z,62.60
2019-03-27T23:31:52.559Z,62.90
2019-03-27T23:35:55.569Z,62.70
2019-03-27T23:39:58.567Z,62.00
2019-03-27T23:44:01.581Z,62.50
2019-03-27T23:48:04.599Z,63.20
2019-03-27T23:52:07.601Z,64.00
2019-03-27T23:56:16.455Z,64.20
